sensor_id;sensor_type;location;lat;lon;timestamp;temperature;humidity
25554;DHT22;13446;50.926;5.332;2022-10-31T00:01:17;16.40;99.90
25554;DHT22;13446;50.926;5.332;2022-10-31T00:03:43;16.40;99.90
25554;DHT22;13446;50.926;5.332;2022-10-31T00:06:08;16.30;99.90
25554;DHT22;13446;50.926;5.332;2022-10-31T00:08:34;16.40;99.90
25554;DHT22;13446;50.926;5.332;2022-10-31T00:10:59;16.60;99.90
25554;DHT22;13446;50.926;5.332;2022-10-31T00:13:25;16.70;99.90
25554;DHT22;13446;50.926;5.332;2022-10-31T00:15:50;16.70;99.90
25554;DHT22;13446;50.926;5.332;2022-10-31T00:18:16;16.50;99.90
25554;DHT22;13446;50.926;5.332;2022-10-31T00:20:41;16.50;99.90
25554;DHT22;13446;50.926;5.332;2022-10-31T00:23:07;16.40;99.90
25554;DHT22;13446;50.926;5.332;2022-10-31T00:25:36;16.20;99.90
25554;DHT22;13446;50.926;5.332;2022-10-31T00:28:02;16.10;99.90
25554;DHT22;13446;50.926;5.332;2022-10-31T00:30:27;16.10;99.90
25554;DHT22;13446;50.926;5.332;2022-10-31T00:32:53;16.30;99.90
25554;DHT22;13446;50.926;5.332;2022-10-31T00:35:19;16.30;99.90
25554;DHT22;13446;50.926;5.332;2022-10-31T00:37:44;16.30;99.90
25554;DHT22;13446;50.926;5.332;2022-10-31T00:40:10;16.40;99.90
25554;DHT22;13446;50.926;5.332;2022-10-31T00:42:35;16.50;99.90
25554;DHT22;13446;50.926;5.332;2022-10-31T00:45:01;16.50;99.90
25554;DHT22;13446;50.926;5.332;2022-10-31T00:47:26;16.50;99.90
25554;DHT22;13446;50.926;5.332;2022-10-31T00:49:52;16.30;99.90
25554;DHT22;13446;50.926;5.332;2022-10-31T00:52:18;16.30;99.90
25554;DHT22;13446;50.926;5.332;2022-10-31T00:54:43;16.30;99.90
25554;DHT22;13446;50.926;5.332;2022-10-31T00:57:08;16.20;99.90
25554;DHT22;13446;50.926;5.332;2022-10-31T00:59:34;16.20;99.90
25554;DHT22;13446;50.926;5.332;2022-10-31T01:01:59;16.20;99.90
25554;DHT22;13446;50.926;5.332;2022-10-31T01:04:25;16.10;99.90
25554;DHT22;13446;50.926;5.332;2022-10-31T01:06:51;16.20;99.90
25554;DHT22;13446;50.926;5.332;2022-10-31T01:09:16;16.20;99.90
25554;DHT22;13446;50.926;5.332;2022-10-31T01:11:42;16.10;99.90
25554;DHT22;13446;50.926;5.332;2022-10-31T01:14:07;16.00;99.90
25554;DHT22;13446;50.926;5.332;2022-10-31T01:16:33;16.00;99.90
25554;DHT22;13446;50.926;5.332;2022-10-31T01:18:59;15.80;99.90
25554;DHT22;13446;50.926;5.332;2022-10-31T01:21:25;15.80;99.90
25554;DHT22;13446;50.926;5.332;2022-10-31T01:23:55;15.80;99.90
25554;DHT22;13446;50.926;5.332;2022-10-31T01:26:22;15.90;99.90
25554;DHT22;13446;50.926;5.332;2022-10-31T01:28:49;16.00;99.90
25554;DHT22;13446;50.926;5.332;2022-10-31T01:31:16;16.00;99.90
25554;DHT22;13446;50.926;5.332;2022-10-31T01:33:41;15.90;99.90
25554;DHT22;13446;50.926;5.332;2022-10-31T01:36:11;15.80;99.90
25554;DHT22;13446;50.926;5.332;2022-10-31T01:38:37;15.70;99.90
25554;DHT22;13446;50.926;5.332;2022-10-31T01:41:03;15.70;99.90
25554;DHT22;13446;50.926;5.332;2022-10-31T01:46:12;15.60;99.90
25554;DHT22;13446;50.926;5.332;2022-10-31T01:48:39;15.80;99.90
25554;DHT22;13446;50.926;5.332;2022-10-31T01:51:05;15.60;99.90
25554;DHT22;13446;50.926;5.332;2022-10-31T01:53:31;15.50;99.90
25554;DHT22;13446;50.926;5.332;2022-10-31T01:55:57;15.40;99.90
25554;DHT22;13446;50.926;5.332;2022-10-31T01:58:24;15.30;99.90
25554;DHT22;13446;50.926;5.332;2022-10-31T02:00:51;15.20;99.90
25554;DHT22;13446;50.926;5.332;2022-10-31T02:03:18;15.30;99.90
25554;DHT22;13446;50.926;5.332;2022-10-31T02:05:45;15.30;99.90
25554;DHT22;13446;50.926;5.332;2022-10-31T02:08:16;15.30;99.90
25554;DHT22;13446;50.926;5.332;2022-10-31T02:10:42;15.30;99.90
25554;DHT22;13446;50.926;5.332;2022-10-31T02:13:08;15.30;99.90
25554;DHT22;13446;50.926;5.332;2022-10-31T02:15:34;15.30;99.90
25554;DHT22;13446;50.926;5.332;2022-10-31T02:18:00;15.30;99.90
25554;DHT22;13446;50.926;5.332;2022-10-31T02:20:28;15.40;99.90
25554;DHT22;13446;50.926;5.332;2022-10-31T02:23:12;15.30;99.90
25554;DHT22;13446;50.926;5.332;2022-10-31T02:33:53;15.20;99.90
25554;DHT22;13446;50.926;5.332;2022-10-31T02:38:51;15.10;99.90
25554;DHT22;13446;50.926;5.332;2022-10-31T02:41:30;15.10;99.90
25554;DHT22;13446;50.926;5.332;2022-10-31T02:44:19;15.20;99.90
25554;DHT22;13446;50.926;5.332;2022-10-31T02:49:21;15.20;99.90
25554;DHT22;13446;50.926;5.332;2022-10-31T02:51:46;15.10;99.90
25554;DHT22;13446;50.926;5.332;2022-10-31T02:54:25;15.20;99.90
25554;DHT22;13446;50.926;5.332;2022-10-31T02:56:53;15.20;99.90
25554;DHT22;13446;50.926;5.332;2022-10-31T02:59:19;15.00;99.90
25554;DHT22;13446;50.926;5.332;2022-10-31T03:06:49;15.00;99.90
25554;DHT22;13446;50.926;5.332;2022-10-31T03:09:27;15.00;99.90
25554;DHT22;13446;50.926;5.332;2022-10-31T03:12:14;15.00;99.90
25554;DHT22;13446;50.926;5.332;2022-10-31T03:14:42;15.00;99.90
25554;DHT22;13446;50.926;5.332;2022-10-31T03:17:12;15.10;99.90
25554;DHT22;13446;50.926;5.332;2022-10-31T03:19:40;15.10;99.90
25554;DHT22;13446;50.926;5.332;2022-10-31T03:22:16;15.10;99.90
25554;DHT22;13446;50.926;5.332;2022-10-31T03:24:43;15.10;99.90
25554;DHT22;13446;50.926;5.332;2022-10-31T03:27:09;15.20;99.90
25554;DHT22;13446;50.926;5.332;2022-10-31T03:29:36;15.10;99.90
25554;DHT22;13446;50.926;5.332;2022-10-31T03:32:06;15.00;99.90
25554;DHT22;13446;50.926;5.332;2022-10-31T03:34:33;15.10;99.90
25554;DHT22;13446;50.926;5.332;2022-10-31T03:37:00;15.10;99.90
25554;DHT22;13446;50.926;5.332;2022-10-31T03:39:27;15.10;99.90
25554;DHT22;13446;50.926;5.332;2022-10-31T03:41:53;15.00;99.90
25554;DHT22;13446;50.926;5.332;2022-10-31T03:44:20;15.20;99.90
25554;DHT22;13446;50.926;5.332;2022-10-31T03:46:47;15.10;99.90
25554;DHT22;13446;50.926;5.332;2022-10-31T03:49:12;15.10;99.90
25554;DHT22;13446;50.926;5.332;2022-10-31T03:51:46;14.90;99.90
25554;DHT22;13446;50.926;5.332;2022-10-31T03:54:17;14.90;99.90
25554;DHT22;13446;50.926;5.332;2022-10-31T03:56:49;14.90;99.90
25554;DHT22;13446;50.926;5.332;2022-10-31T03:59:35;14.80;99.90
25554;DHT22;13446;50.926;5.332;2022-10-31T04:02:03;14.80;99.90
25554;DHT22;13446;50.926;5.332;2022-10-31T04:04:30;14.80;99.90
25554;DHT22;13446;50.926;5.332;2022-10-31T04:06:56;14.70;99.90
25554;DHT22;13446;50.926;5.332;2022-10-31T04:09:24;14.70;99.90
25554;DHT22;13446;50.926;5.332;2022-10-31T04:11:51;14.70;99.90
25554;DHT22;13446;50.926;5.332;2022-10-31T04:14:18;14.70;99.90
25554;DHT22;13446;50.926;5.332;2022-10-31T04:16:44;14.70;99.90
25554;DHT22;13446;50.926;5.332;2022-10-31T04:19:10;14.70;99.90
25554;DHT22;13446;50.926;5.332;2022-10-31T04:21:35;14.90;99.90
25554;DHT22;13446;50.926;5.332;2022-10-31T04:24:01;14.80;99.90
25554;DHT22;13446;50.926;5.332;2022-10-31T04:26:27;14.60;99.90
25554;DHT22;13446;50.926;5.332;2022-10-31T04:28:52;14.70;99.90
25554;DHT22;13446;50.926;5.332;2022-10-31T04:31:18;14.60;99.90
25554;DHT22;13446;50.926;5.332;2022-10-31T04:33:43;14.70;99.90
25554;DHT22;13446;50.926;5.332;2022-10-31T04:36:09;14.70;99.90
25554;DHT22;13446;50.926;5.332;2022-10-31T04:38:34;14.60;99.90
25554;DHT22;13446;50.926;5.332;2022-10-31T04:41:00;14.60;99.90
25554;DHT22;13446;50.926;5.332;2022-10-31T04:43:25;14.50;99.90
25554;DHT22;13446;50.926;5.332;2022-10-31T04:45:51;14.60;99.90
25554;DHT22;13446;50.926;5.332;2022-10-31T04:48:16;14.60;99.90
25554;DHT22;13446;50.926;5.332;2022-10-31T04:50:42;14.60;99.90
25554;DHT22;13446;50.926;5.332;2022-10-31T04:53:07;14.70;99.90
25554;DHT22;13446;50.926;5.332;2022-10-31T04:55:35;14.40;99.90
25554;DHT22;13446;50.926;5.332;2022-10-31T04:58:01;14.30;99.90
25554;DHT22;13446;50.926;5.332;2022-10-31T05:00:27;14.10;99.90
25554;DHT22;13446;50.926;5.332;2022-10-31T05:02:56;14.10;99.90
25554;DHT22;13446;50.926;5.332;2022-10-31T05:05:25;14.00;99.90
25554;DHT22;13446;50.926;5.332;2022-10-31T05:07:50;14.10;99.90
25554;DHT22;13446;50.926;5.332;2022-10-31T05:10:17;14.30;99.90
25554;DHT22;13446;50.926;5.332;2022-10-31T05:12:50;14.60;99.90
25554;DHT22;13446;50.926;5.332;2022-10-31T05:15:16;14.50;99.90
25554;DHT22;13446;50.926;5.332;2022-10-31T05:17:42;14.40;99.90
25554;DHT22;13446;50.926;5.332;2022-10-31T05:20:08;14.30;99.90
25554;DHT22;13446;50.926;5.332;2022-10-31T05:22:34;14.40;99.90
25554;DHT22;13446;50.926;5.332;2022-10-31T05:24:59;14.40;99.90
25554;DHT22;13446;50.926;5.332;2022-10-31T05:27:25;14.30;99.90
25554;DHT22;13446;50.926;5.332;2022-10-31T05:29:50;14.40;99.90
25554;DHT22;13446;50.926;5.332;2022-10-31T05:32:16;14.30;99.90
25554;DHT22;13446;50.926;5.332;2022-10-31T05:34:41;14.10;99.90
25554;DHT22;13446;50.926;5.332;2022-10-31T05:37:07;14.10;99.90
25554;DHT22;13446;50.926;5.332;2022-10-31T05:39:32;14.20;99.90
25554;DHT22;13446;50.926;5.332;2022-10-31T05:41:58;14.10;99.90
25554;DHT22;13446;50.926;5.332;2022-10-31T05:44:23;14.20;99.90
25554;DHT22;13446;50.926;5.332;2022-10-31T05:46:49;14.10;99.90
25554;DHT22;13446;50.926;5.332;2022-10-31T05:49:14;14.10;99.90
25554;DHT22;13446;50.926;5.332;2022-10-31T05:51:40;14.20;99.90
25554;DHT22;13446;50.926;5.332;2022-10-31T05:54:05;14.20;99.90
25554;DHT22;13446;50.926;5.332;2022-10-31T05:56:31;14.20;99.90
25554;DHT22;13446;50.926;5.332;2022-10-31T05:58:56;14.20;99.90
25554;DHT22;13446;50.926;5.332;2022-10-31T06:01:22;14.30;99.90
25554;DHT22;13446;50.926;5.332;2022-10-31T06:03:47;14.20;99.90
25554;DHT22;13446;50.926;5.332;2022-10-31T06:06:13;14.20;99.90
25554;DHT22;13446;50.926;5.332;2022-10-31T06:08:38;14.10;99.90
25554;DHT22;13446;50.926;5.332;2022-10-31T06:11:05;14.10;99.90
25554;DHT22;13446;50.926;5.332;2022-10-31T06:13:30;14.00;99.90
25554;DHT22;13446;50.926;5.332;2022-10-31T06:15:56;14.00;99.90
25554;DHT22;13446;50.926;5.332;2022-10-31T06:18:21;14.10;99.90
25554;DHT22;13446;50.926;5.332;2022-10-31T06:20:47;14.00;99.90
25554;DHT22;13446;50.926;5.332;2022-10-31T06:23:12;14.10;99.90
25554;DHT22;13446;50.926;5.332;2022-10-31T06:25:38;14.00;99.90
25554;DHT22;13446;50.926;5.332;2022-10-31T06:28:03;14.00;99.90
25554;DHT22;13446;50.926;5.332;2022-10-31T06:30:29;14.00;99.90
25554;DHT22;13446;50.926;5.332;2022-10-31T06:33:00;14.00;99.90
25554;DHT22;13446;50.926;5.332;2022-10-31T06:35:26;14.00;99.90
25554;DHT22;13446;50.926;5.332;2022-10-31T06:37:52;14.10;99.90
25554;DHT22;13446;50.926;5.332;2022-10-31T06:40:18;14.30;99.90
25554;DHT22;13446;50.926;5.332;2022-10-31T06:42:43;14.40;99.90
25554;DHT22;13446;50.926;5.332;2022-10-31T06:45:09;14.40;99.90
25554;DHT22;13446;50.926;5.332;2022-10-31T06:47:34;14.30;99.90
25554;DHT22;13446;50.926;5.332;2022-10-31T06:50:00;14.30;99.90
25554;DHT22;13446;50.926;5.332;2022-10-31T06:52:25;14.40;99.90
25554;DHT22;13446;50.926;5.332;2022-10-31T06:54:51;14.40;99.90
25554;DHT22;13446;50.926;5.332;2022-10-31T06:57:17;14.50;99.90
25554;DHT22;13446;50.926;5.332;2022-10-31T06:59:42;14.50;99.90
25554;DHT22;13446;50.926;5.332;2022-10-31T07:02:09;14.30;99.90
25554;DHT22;13446;50.926;5.332;2022-10-31T07:04:35;14.20;99.90
25554;DHT22;13446;50.926;5.332;2022-10-31T07:07:00;14.20;99.90
25554;DHT22;13446;50.926;5.332;2022-10-31T07:09:26;14.20;99.90
25554;DHT22;13446;50.926;5.332;2022-10-31T07:11:52;14.30;99.90
25554;DHT22;13446;50.926;5.332;2022-10-31T07:14:18;14.30;99.90
25554;DHT22;13446;50.926;5.332;2022-10-31T07:16:43;14.30;99.90
25554;DHT22;13446;50.926;5.332;2022-10-31T07:19:09;14.40;99.90
25554;DHT22;13446;50.926;5.332;2022-10-31T07:21:35;14.60;99.90
25554;DHT22;13446;50.926;5.332;2022-10-31T07:24:00;14.60;99.90
25554;DHT22;13446;50.926;5.332;2022-10-31T07:26:26;14.80;99.90
25554;DHT22;13446;50.926;5.332;2022-10-31T07:28:53;14.90;99.90
25554;DHT22;13446;50.926;5.332;2022-10-31T07:31:18;14.90;99.90
25554;DHT22;13446;50.926;5.332;2022-10-31T07:33:44;14.80;99.90
25554;DHT22;13446;50.926;5.332;2022-10-31T07:36:09;14.90;99.90
25554;DHT22;13446;50.926;5.332;2022-10-31T07:38:35;15.00;99.90
25554;DHT22;13446;50.926;5.332;2022-10-31T07:41:00;14.90;99.90
25554;DHT22;13446;50.926;5.332;2022-10-31T07:43:26;14.80;99.90
25554;DHT22;13446;50.926;5.332;2022-10-31T07:45:51;14.80;99.90
25554;DHT22;13446;50.926;5.332;2022-10-31T07:48:17;14.80;99.90
25554;DHT22;13446;50.926;5.332;2022-10-31T07:50:43;14.70;99.90
25554;DHT22;13446;50.926;5.332;2022-10-31T07:53:09;14.70;99.90
25554;DHT22;13446;50.926;5.332;2022-10-31T07:55:35;15.00;99.90
25554;DHT22;13446;50.926;5.332;2022-10-31T07:58:11;15.10;99.90
25554;DHT22;13446;50.926;5.332;2022-10-31T08:00:37;15.10;99.90
25554;DHT22;13446;50.926;5.332;2022-10-31T08:03:04;15.20;99.90
25554;DHT22;13446;50.926;5.332;2022-10-31T08:05:30;15.40;99.90
25554;DHT22;13446;50.926;5.332;2022-10-31T08:07:56;15.40;99.90
25554;DHT22;13446;50.926;5.332;2022-10-31T08:10:22;15.50;99.90
25554;DHT22;13446;50.926;5.332;2022-10-31T08:12:54;15.70;99.90
25554;DHT22;13446;50.926;5.332;2022-10-31T08:15:20;16.10;99.90
25554;DHT22;13446;50.926;5.332;2022-10-31T08:17:45;16.70;99.90
25554;DHT22;13446;50.926;5.332;2022-10-31T08:20:11;17.20;99.90
25554;DHT22;13446;50.926;5.332;2022-10-31T08:22:36;17.60;99.90
25554;DHT22;13446;50.926;5.332;2022-10-31T08:25:02;18.00;99.90
25554;DHT22;13446;50.926;5.332;2022-10-31T08:27:27;17.80;99.90
25554;DHT22;13446;50.926;5.332;2022-10-31T08:29:53;18.30;99.90
25554;DHT22;13446;50.926;5.332;2022-10-31T08:32:18;18.50;99.90
25554;DHT22;13446;50.926;5.332;2022-10-31T08:34:44;18.80;99.90
25554;DHT22;13446;50.926;5.332;2022-10-31T08:37:09;19.00;99.90
25554;DHT22;13446;50.926;5.332;2022-10-31T08:39:35;19.20;99.90
25554;DHT22;13446;50.926;5.332;2022-10-31T08:42:00;19.40;99.90
25554;DHT22;13446;50.926;5.332;2022-10-31T08:44:26;19.40;99.90
25554;DHT22;13446;50.926;5.332;2022-10-31T08:46:51;19.30;99.90
25554;DHT22;13446;50.926;5.332;2022-10-31T08:49:17;19.60;99.90
25554;DHT22;13446;50.926;5.332;2022-10-31T08:51:42;20.20;99.90
25554;DHT22;13446;50.926;5.332;2022-10-31T08:54:08;20.90;99.90
25554;DHT22;13446;50.926;5.332;2022-10-31T08:56:33;21.40;99.90
25554;DHT22;13446;50.926;5.332;2022-10-31T08:58:59;21.20;99.90
25554;DHT22;13446;50.926;5.332;2022-10-31T09:01:25;21.30;99.90
25554;DHT22;13446;50.926;5.332;2022-10-31T09:03:50;21.30;99.90
25554;DHT22;13446;50.926;5.332;2022-10-31T09:06:16;21.30;99.90
25554;DHT22;13446;50.926;5.332;2022-10-31T09:08:41;21.30;99.90
25554;DHT22;13446;50.926;5.332;2022-10-31T09:11:07;20.50;99.90
25554;DHT22;13446;50.926;5.332;2022-10-31T09:13:32;20.50;99.90
25554;DHT22;13446;50.926;5.332;2022-10-31T09:15:58;20.50;99.90
25554;DHT22;13446;50.926;5.332;2022-10-31T09:18:24;20.40;99.90
25554;DHT22;13446;50.926;5.332;2022-10-31T09:20:50;20.70;99.90
25554;DHT22;13446;50.926;5.332;2022-10-31T09:23:16;21.00;99.90
25554;DHT22;13446;50.926;5.332;2022-10-31T09:25:42;21.10;99.90
25554;DHT22;13446;50.926;5.332;2022-10-31T09:28:09;21.10;99.90
25554;DHT22;13446;50.926;5.332;2022-10-31T09:30:35;21.20;99.90
25554;DHT22;13446;50.926;5.332;2022-10-31T09:33:02;21.10;99.90
25554;DHT22;13446;50.926;5.332;2022-10-31T09:35:28;20.50;99.90
25554;DHT22;13446;50.926;5.332;2022-10-31T09:37:57;20.10;99.90
25554;DHT22;13446;50.926;5.332;2022-10-31T09:40:24;19.40;99.90
25554;DHT22;13446;50.926;5.332;2022-10-31T09:42:54;19.10;99.90
25554;DHT22;13446;50.926;5.332;2022-10-31T09:45:23;19.20;99.90
25554;DHT22;13446;50.926;5.332;2022-10-31T09:50:24;18.80;99.90
25554;DHT22;13446;50.926;5.332;2022-10-31T09:52:58;18.80;99.90
25554;DHT22;13446;50.926;5.332;2022-10-31T09:55:31;19.00;99.90
25554;DHT22;13446;50.926;5.332;2022-10-31T09:58:00;19.30;99.90
25554;DHT22;13446;50.926;5.332;2022-10-31T10:00:28;19.50;99.90
25554;DHT22;13446;50.926;5.332;2022-10-31T10:02:59;19.70;99.90
25554;DHT22;13446;50.926;5.332;2022-10-31T10:05:41;19.70;99.90
25554;DHT22;13446;50.926;5.332;2022-10-31T10:08:10;19.70;99.90
25554;DHT22;13446;50.926;5.332;2022-10-31T10:13:34;20.00;99.90
25554;DHT22;13446;50.926;5.332;2022-10-31T10:19:00;19.90;99.90
25554;DHT22;13446;50.926;5.332;2022-10-31T10:24:00;19.90;99.90
25554;DHT22;13446;50.926;5.332;2022-10-31T10:26:40;19.60;99.90
25554;DHT22;13446;50.926;5.332;2022-10-31T10:31:43;19.80;99.90
25554;DHT22;13446;50.926;5.332;2022-10-31T10:34:17;19.70;99.90
25554;DHT22;13446;50.926;5.332;2022-10-31T10:36:45;19.60;99.90
25554;DHT22;13446;50.926;5.332;2022-10-31T10:39:14;19.60;99.90
25554;DHT22;13446;50.926;5.332;2022-10-31T10:41:41;19.60;99.90
25554;DHT22;13446;50.926;5.332;2022-10-31T10:44:10;19.60;99.90
25554;DHT22;13446;50.926;5.332;2022-10-31T10:54:38;20.60;99.90
25554;DHT22;13446;50.926;5.332;2022-10-31T10:59:49;21.20;99.90
25554;DHT22;13446;50.926;5.332;2022-10-31T11:02:20;21.20;99.90
25554;DHT22;13446;50.926;5.332;2022-10-31T11:04:50;21.40;99.90
25554;DHT22;13446;50.926;5.332;2022-10-31T11:07:16;21.30;99.90
25554;DHT22;13446;50.926;5.332;2022-10-31T11:09:41;21.40;99.90
25554;DHT22;13446;50.926;5.332;2022-10-31T11:12:14;21.60;99.90
25554;DHT22;13446;50.926;5.332;2022-10-31T11:14:44;21.50;99.90
25554;DHT22;13446;50.926;5.332;2022-10-31T11:17:17;21.30;99.90
25554;DHT22;13446;50.926;5.332;2022-10-31T11:19:43;21.50;99.90
25554;DHT22;13446;50.926;5.332;2022-10-31T11:22:13;21.60;99.90
25554;DHT22;13446;50.926;5.332;2022-10-31T11:24:41;21.50;99.90
25554;DHT22;13446;50.926;5.332;2022-10-31T11:27:19;21.70;99.90
25554;DHT22;13446;50.926;5.332;2022-10-31T11:29:45;21.60;99.90
25554;DHT22;13446;50.926;5.332;2022-10-31T11:32:24;21.40;99.90
25554;DHT22;13446;50.926;5.332;2022-10-31T11:34:56;21.20;99.90
25554;DHT22;13446;50.926;5.332;2022-10-31T11:37:26;21.20;99.90
25554;DHT22;13446;50.926;5.332;2022-10-31T11:39:54;21.00;99.90
25554;DHT22;13446;50.926;5.332;2022-10-31T11:42:21;21.00;99.90
25554;DHT22;13446;50.926;5.332;2022-10-31T11:44:47;21.10;99.90
25554;DHT22;13446;50.926;5.332;2022-10-31T11:47:14;21.10;99.90
25554;DHT22;13446;50.926;5.332;2022-10-31T11:49:41;21.00;99.90
25554;DHT22;13446;50.926;5.332;2022-10-31T11:54:45;21.20;99.90
25554;DHT22;13446;50.926;5.332;2022-10-31T11:57:22;21.20;99.90
25554;DHT22;13446;50.926;5.332;2022-10-31T11:59:50;21.20;99.90
25554;DHT22;13446;50.926;5.332;2022-10-31T12:02:17;21.40;99.90
25554;DHT22;13446;50.926;5.332;2022-10-31T12:04:46;21.70;99.90
25554;DHT22;13446;50.926;5.332;2022-10-31T12:07:14;21.70;99.90
25554;DHT22;13446;50.926;5.332;2022-10-31T12:09:40;21.80;99.90
25554;DHT22;13446;50.926;5.332;2022-10-31T12:22:12;22.10;99.90
25554;DHT22;13446;50.926;5.332;2022-10-31T12:24:50;21.90;99.90
25554;DHT22;13446;50.926;5.332;2022-10-31T12:32:15;21.30;99.90
25554;DHT22;13446;50.926;5.332;2022-10-31T12:57:50;22.20;99.90
25554;DHT22;13446;50.926;5.332;2022-10-31T13:00:16;22.20;99.90
25554;DHT22;13446;50.926;5.332;2022-10-31T13:02:50;22.10;99.90
25554;DHT22;13446;50.926;5.332;2022-10-31T13:08:29;22.50;99.90
25554;DHT22;13446;50.926;5.332;2022-10-31T13:13:26;22.80;99.90
25554;DHT22;13446;50.926;5.332;2022-10-31T13:15:56;23.40;99.90
25554;DHT22;13446;50.926;5.332;2022-10-31T13:18:27;23.40;99.90
25554;DHT22;13446;50.926;5.332;2022-10-31T13:20:53;23.10;99.90
25554;DHT22;13446;50.926;5.332;2022-10-31T13:23:24;22.70;99.90
25554;DHT22;13446;50.926;5.332;2022-10-31T13:25:53;22.80;99.90
25554;DHT22;13446;50.926;5.332;2022-10-31T13:30:53;23.00;99.90
25554;DHT22;13446;50.926;5.332;2022-10-31T13:33:21;23.00;99.90
25554;DHT22;13446;50.926;5.332;2022-10-31T13:38:34;23.10;99.90
25554;DHT22;13446;50.926;5.332;2022-10-31T13:46:24;23.50;99.90
25554;DHT22;13446;50.926;5.332;2022-10-31T13:48:50;23.90;99.90
25554;DHT22;13446;50.926;5.332;2022-10-31T13:51:23;23.90;99.90
25554;DHT22;13446;50.926;5.332;2022-10-31T13:56:25;23.80;99.90
25554;DHT22;13446;50.926;5.332;2022-10-31T14:01:35;24.20;99.90
25554;DHT22;13446;50.926;5.332;2022-10-31T14:04:13;24.30;99.90
25554;DHT22;13446;50.926;5.332;2022-10-31T14:06:56;24.50;99.90
25554;DHT22;13446;50.926;5.332;2022-10-31T14:09:24;24.30;99.90
25554;DHT22;13446;50.926;5.332;2022-10-31T14:11:50;24.00;99.90
25554;DHT22;13446;50.926;5.332;2022-10-31T14:14:16;23.90;99.90
25554;DHT22;13446;50.926;5.332;2022-10-31T14:16:42;23.60;99.90
25554;DHT22;13446;50.926;5.332;2022-10-31T14:19:19;23.00;99.90
25554;DHT22;13446;50.926;5.332;2022-10-31T14:21:46;22.30;99.90
25554;DHT22;13446;50.926;5.332;2022-10-31T14:24:34;21.70;99.90
25554;DHT22;13446;50.926;5.332;2022-10-31T14:29:25;21.50;99.90
25554;DHT22;13446;50.926;5.332;2022-10-31T14:31:52;21.40;99.90
25554;DHT22;13446;50.926;5.332;2022-10-31T14:34:20;21.40;99.90
25554;DHT22;13446;50.926;5.332;2022-10-31T14:36:59;21.30;99.90
25554;DHT22;13446;50.926;5.332;2022-10-31T14:39:30;21.20;99.90
25554;DHT22;13446;50.926;5.332;2022-10-31T14:51:48;20.80;99.90
25554;DHT22;13446;50.926;5.332;2022-10-31T14:54:20;20.60;99.90
25554;DHT22;13446;50.926;5.332;2022-10-31T14:56:50;20.60;99.90
25554;DHT22;13446;50.926;5.332;2022-10-31T14:59:23;20.40;99.90
25554;DHT22;13446;50.926;5.332;2022-10-31T15:02:00;20.30;99.90
25554;DHT22;13446;50.926;5.332;2022-10-31T15:04:27;20.40;99.90
25554;DHT22;13446;50.926;5.332;2022-10-31T15:09:32;20.50;99.90
25554;DHT22;13446;50.926;5.332;2022-10-31T15:11:59;20.40;99.90
25554;DHT22;13446;50.926;5.332;2022-10-31T15:14:29;20.30;99.90
25554;DHT22;13446;50.926;5.332;2022-10-31T15:16:56;20.50;99.90
25554;DHT22;13446;50.926;5.332;2022-10-31T15:19:26;20.40;99.90
25554;DHT22;13446;50.926;5.332;2022-10-31T15:21:52;20.30;99.90
25554;DHT22;13446;50.926;5.332;2022-10-31T15:24:19;20.30;99.90
25554;DHT22;13446;50.926;5.332;2022-10-31T15:26:50;20.30;99.90
25554;DHT22;13446;50.926;5.332;2022-10-31T15:29:18;20.20;99.90
25554;DHT22;13446;50.926;5.332;2022-10-31T15:34:26;20.10;99.90
25554;DHT22;13446;50.926;5.332;2022-10-31T15:36:54;20.10;99.90
25554;DHT22;13446;50.926;5.332;2022-10-31T15:39:19;20.00;99.90
25554;DHT22;13446;50.926;5.332;2022-10-31T15:41:49;19.90;99.90
25554;DHT22;13446;50.926;5.332;2022-10-31T15:44:16;19.90;99.90
25554;DHT22;13446;50.926;5.332;2022-10-31T15:46:43;19.90;99.90
25554;DHT22;13446;50.926;5.332;2022-10-31T15:51:52;20.00;99.90
25554;DHT22;13446;50.926;5.332;2022-10-31T15:54:21;20.20;99.90
25554;DHT22;13446;50.926;5.332;2022-10-31T15:56:49;20.30;99.90
25554;DHT22;13446;50.926;5.332;2022-10-31T15:59:18;20.40;99.90
25554;DHT22;13446;50.926;5.332;2022-10-31T16:01:53;20.30;99.90
25554;DHT22;13446;50.926;5.332;2022-10-31T16:04:21;20.10;99.90
25554;DHT22;13446;50.926;5.332;2022-10-31T16:07:01;20.00;99.90
25554;DHT22;13446;50.926;5.332;2022-10-31T16:09:27;20.00;99.90
25554;DHT22;13446;50.926;5.332;2022-10-31T16:11:52;19.90;99.90
25554;DHT22;13446;50.926;5.332;2022-10-31T16:14:22;20.00;99.90
25554;DHT22;13446;50.926;5.332;2022-10-31T16:16:49;19.90;99.90
25554;DHT22;13446;50.926;5.332;2022-10-31T16:19:28;19.80;99.90
25554;DHT22;13446;50.926;5.332;2022-10-31T16:22:19;19.70;99.90
25554;DHT22;13446;50.926;5.332;2022-10-31T16:30:27;19.80;99.90
25554;DHT22;13446;50.926;5.332;2022-10-31T16:32:54;19.60;99.90
25554;DHT22;13446;50.926;5.332;2022-10-31T16:37:57;19.40;99.90
25554;DHT22;13446;50.926;5.332;2022-10-31T16:40:23;19.30;99.90
25554;DHT22;13446;50.926;5.332;2022-10-31T16:42:49;19.20;99.90
25554;DHT22;13446;50.926;5.332;2022-10-31T16:45:26;19.20;99.90
25554;DHT22;13446;50.926;5.332;2022-10-31T16:47:52;19.30;99.90
25554;DHT22;13446;50.926;5.332;2022-10-31T16:50:22;19.20;99.90
25554;DHT22;13446;50.926;5.332;2022-10-31T16:52:48;19.20;99.90
25554;DHT22;13446;50.926;5.332;2022-10-31T16:55:14;19.00;99.90
25554;DHT22;13446;50.926;5.332;2022-10-31T16:57:41;18.90;99.90
25554;DHT22;13446;50.926;5.332;2022-10-31T17:00:08;18.80;99.90
25554;DHT22;13446;50.926;5.332;2022-10-31T17:02:34;18.90;99.90
25554;DHT22;13446;50.926;5.332;2022-10-31T17:05:08;18.80;99.90
25554;DHT22;13446;50.926;5.332;2022-10-31T17:07:34;18.90;99.90
25554;DHT22;13446;50.926;5.332;2022-10-31T17:10:00;18.90;99.90
25554;DHT22;13446;50.926;5.332;2022-10-31T17:12:25;18.70;99.90
25554;DHT22;13446;50.926;5.332;2022-10-31T17:14:51;18.90;99.90
25554;DHT22;13446;50.926;5.332;2022-10-31T17:17:17;18.90;99.90
25554;DHT22;13446;50.926;5.332;2022-10-31T17:19:43;18.90;99.90
25554;DHT22;13446;50.926;5.332;2022-10-31T17:22:10;18.80;99.90
25554;DHT22;13446;50.926;5.332;2022-10-31T17:24:36;18.80;99.90
25554;DHT22;13446;50.926;5.332;2022-10-31T17:27:02;18.60;99.90
25554;DHT22;13446;50.926;5.332;2022-10-31T17:29:27;18.60;99.90
25554;DHT22;13446;50.926;5.332;2022-10-31T17:31:53;18.40;99.90
25554;DHT22;13446;50.926;5.332;2022-10-31T17:34:19;18.40;99.90
25554;DHT22;13446;50.926;5.332;2022-10-31T17:36:48;18.40;99.90
25554;DHT22;13446;50.926;5.332;2022-10-31T17:39:14;18.30;99.90
25554;DHT22;13446;50.926;5.332;2022-10-31T17:41:39;18.30;99.90
25554;DHT22;13446;50.926;5.332;2022-10-31T17:44:05;18.40;99.90
25554;DHT22;13446;50.926;5.332;2022-10-31T17:46:30;18.20;99.90
25554;DHT22;13446;50.926;5.332;2022-10-31T17:48:56;18.40;99.90